sensor_id;sensor_type;location;lat;lon;timestamp;pressure;altitude;pressure_sealevel;temperature;humidity
27729;BME280;15126;42.186;24.340;2023-02-18T00:00:53;100053.69;;;7.04;50.92
27729;BME280;15126;42.186;24.340;2023-02-18T00:03:22;100062.78;;;7.01;51.65
27729;BME280;15126;42.186;24.340;2023-02-18T00:05:50;100060.38;;;6.89;52.37
27729;BME280;15126;42.186;24.340;2023-02-18T00:08:17;100063.94;;;6.93;52.61
27729;BME280;15126;42.186;24.340;2023-02-18T00:10:44;100053.31;;;7.02;51.42
27729;BME280;15126;42.186;24.340;2023-02-18T00:13:11;100059.69;;;7.06;51.09
27729;BME280;15126;42.186;24.340;2023-02-18T00:15:38;100054.53;;;7.08;50.81
27729;BME280;15126;42.186;24.340;2023-02-18T00:18:05;100049.41;;;7.14;51.12
27729;BME280;15126;42.186;24.340;2023-02-18T00:20:33;100038.28;;;7.10;51.13
27729;BME280;15126;42.186;24.340;2023-02-18T00:23:04;100052.56;;;7.09;52.11
27729;BME280;15126;42.186;24.340;2023-02-18T00:25:31;100041.34;;;6.88;52.13
27729;BME280;15126;42.186;24.340;2023-02-18T00:27:58;100034.22;;;6.90;51.77
27729;BME280;15126;42.186;24.340;2023-02-18T00:30:24;100051.72;;;7.01;52.65
27729;BME280;15126;42.186;24.340;2023-02-18T00:32:52;100046.16;;;6.98;52.28
27729;BME280;15126;42.186;24.340;2023-02-18T00:35:19;100043.00;;;6.99;51.87
27729;BME280;15126;42.186;24.340;2023-02-18T00:37:46;100037.03;;;6.97;51.54
27729;BME280;15126;42.186;24.340;2023-02-18T00:40:16;100037.81;;;6.94;51.78
27729;BME280;15126;42.186;24.340;2023-02-18T00:42:42;100035.78;;;6.88;52.39
27729;BME280;15126;42.186;24.340;2023-02-18T00:45:09;100028.25;;;6.81;52.36
27729;BME280;15126;42.186;24.340;2023-02-18T00:47:36;100021.94;;;6.84;51.55
27729;BME280;15126;42.186;24.340;2023-02-18T00:50:03;100030.63;;;6.83;51.70
27729;BME280;15126;42.186;24.340;2023-02-18T00:52:31;100010.41;;;6.82;51.70
27729;BME280;15126;42.186;24.340;2023-02-18T00:54:58;100013.19;;;6.82;51.77
27729;BME280;15126;42.186;24.340;2023-02-18T00:57:26;100023.06;;;6.80;51.66
27729;BME280;15126;42.186;24.340;2023-02-18T00:59:53;100009.63;;;6.78;52.31
27729;BME280;15126;42.186;24.340;2023-02-18T01:02:19;100006.03;;;6.78;52.93
27729;BME280;15126;42.186;24.340;2023-02-18T01:04:46;100005.66;;;6.76;52.31
27729;BME280;15126;42.186;24.340;2023-02-18T01:07:13;99988.59;;;6.70;52.99
27729;BME280;15126;42.186;24.340;2023-02-18T01:09:40;99980.25;;;6.67;53.07
27729;BME280;15126;42.186;24.340;2023-02-18T01:12:07;99975.06;;;6.54;54.27
27729;BME280;15126;42.186;24.340;2023-02-18T01:14:35;99974.63;;;6.52;53.79
27729;BME280;15126;42.186;24.340;2023-02-18T01:17:02;99978.19;;;6.53;53.28
27729;BME280;15126;42.186;24.340;2023-02-18T01:19:29;99961.91;;;6.44;53.63
27729;BME280;15126;42.186;24.340;2023-02-18T01:21:55;99945.19;;;6.27;53.55
27729;BME280;15126;42.186;24.340;2023-02-18T01:24:22;99955.94;;;6.35;54.05
27729;BME280;15126;42.186;24.340;2023-02-18T01:26:49;99952.75;;;6.30;54.29
27729;BME280;15126;42.186;24.340;2023-02-18T01:29:16;99939.22;;;6.21;54.49
27729;BME280;15126;42.186;24.340;2023-02-18T01:31:44;99947.13;;;6.23;54.39
27729;BME280;15126;42.186;24.340;2023-02-18T01:34:11;99947.53;;;6.21;54.44
27729;BME280;15126;42.186;24.340;2023-02-18T01:36:39;99947.13;;;6.19;54.48
27729;BME280;15126;42.186;24.340;2023-02-18T01:39:06;99923.63;;;5.95;54.82
27729;BME280;15126;42.186;24.340;2023-02-18T01:41:33;99948.28;;;6.11;54.49
27729;BME280;15126;42.186;24.340;2023-02-18T01:44:14;99946.63;;;6.07;54.99
27729;BME280;15126;42.186;24.340;2023-02-18T01:46:41;99945.44;;;6.01;55.38
27729;BME280;15126;42.186;24.340;2023-02-18T01:49:11;99946.97;;;5.98;55.33
27729;BME280;15126;42.186;24.340;2023-02-18T01:51:43;99949.72;;;5.94;55.44
27729;BME280;15126;42.186;24.340;2023-02-18T01:54:14;99948.13;;;5.93;55.96
27729;BME280;15126;42.186;24.340;2023-02-18T01:56:45;99946.13;;;5.87;55.81
27729;BME280;15126;42.186;24.340;2023-02-18T01:59:17;99942.47;;;5.83;55.81
27729;BME280;15126;42.186;24.340;2023-02-18T02:01:45;99954.34;;;5.83;56.51
27729;BME280;15126;42.186;24.340;2023-02-18T02:04:13;99955.13;;;5.80;56.27
27729;BME280;15126;42.186;24.340;2023-02-18T02:06:40;99961.38;;;5.74;56.06
27729;BME280;15126;42.186;24.340;2023-02-18T02:09:09;99959.78;;;5.73;56.01
27729;BME280;15126;42.186;24.340;2023-02-18T02:12:04;99962.84;;;5.61;56.25
27729;BME280;15126;42.186;24.340;2023-02-18T02:14:49;99948.91;;;5.50;55.23
27729;BME280;15126;42.186;24.340;2023-02-18T02:17:32;99958.81;;;5.55;56.02
27729;BME280;15126;42.186;24.340;2023-02-18T02:35:19;99959.28;;;6.01;53.67
27729;BME280;15126;42.186;24.340;2023-02-18T02:37:53;99960.91;;;6.09;53.76
27729;BME280;15126;42.186;24.340;2023-02-18T02:40:24;99966.47;;;6.16;53.68
27729;BME280;15126;42.186;24.340;2023-02-18T02:43:05;99958.03;;;5.98;55.02
27729;BME280;15126;42.186;24.340;2023-02-18T02:45:43;99976.28;;;6.06;53.88
27729;BME280;15126;42.186;24.340;2023-02-18T02:48:17;99970.34;;;6.01;54.55
27729;BME280;15126;42.186;24.340;2023-02-18T02:50:51;99982.88;;;5.87;55.25
27729;BME280;15126;42.186;24.340;2023-02-18T02:53:23;99973.31;;;5.81;55.01
27729;BME280;15126;42.186;24.340;2023-02-18T02:55:51;99968.09;;;5.76;54.93
27729;BME280;15126;42.186;24.340;2023-02-18T02:58:19;99973.56;;;5.66;54.71
27729;BME280;15126;42.186;24.340;2023-02-18T03:00:57;99975.59;;;5.72;54.77
27729;BME280;15126;42.186;24.340;2023-02-18T03:03:47;99958.59;;;5.70;54.30
27729;BME280;15126;42.186;24.340;2023-02-18T03:06:31;99950.28;;;5.70;55.16
27729;BME280;15126;42.186;24.340;2023-02-18T03:09:09;99967.69;;;5.74;54.93
27729;BME280;15126;42.186;24.340;2023-02-18T03:14:28;99960.47;;;5.63;55.64
27729;BME280;15126;42.186;24.340;2023-02-18T03:16:58;99955.72;;;5.60;55.37
27729;BME280;15126;42.186;24.340;2023-02-18T03:19:30;99958.81;;;5.51;56.54
27729;BME280;15126;42.186;24.340;2023-02-18T03:22:04;99938.19;;;5.45;55.65
27729;BME280;15126;42.186;24.340;2023-02-18T03:24:35;99921.97;;;5.40;55.57
27729;BME280;15126;42.186;24.340;2023-02-18T03:27:07;99931.50;;;5.50;54.66
27729;BME280;15126;42.186;24.340;2023-02-18T03:29:35;99934.31;;;5.53;55.36
27729;BME280;15126;42.186;24.340;2023-02-18T03:32:05;99931.16;;;5.55;55.54
27729;BME280;15126;42.186;24.340;2023-02-18T03:34:37;99942.22;;;5.55;55.36
27729;BME280;15126;42.186;24.340;2023-02-18T03:37:08;99948.19;;;5.57;54.81
27729;BME280;15126;42.186;24.340;2023-02-18T03:39:36;99928.66;;;5.39;55.44
27729;BME280;15126;42.186;24.340;2023-02-18T03:42:06;99939.75;;;5.43;55.34
27729;BME280;15126;42.186;24.340;2023-02-18T03:44:33;99946.44;;;5.38;55.52
27729;BME280;15126;42.186;24.340;2023-02-18T03:47:00;99948.41;;;5.37;55.48
27729;BME280;15126;42.186;24.340;2023-02-18T03:49:27;99953.13;;;5.37;55.18
27729;BME280;15126;42.186;24.340;2023-02-18T03:51:53;99945.59;;;5.34;55.23
27729;BME280;15126;42.186;24.340;2023-02-18T03:54:22;99963.44;;;5.40;55.38
27729;BME280;15126;42.186;24.340;2023-02-18T03:56:48;99947.09;;;5.28;55.00
27729;BME280;15126;42.186;24.340;2023-02-18T03:59:15;99955.97;;;5.44;54.82
27729;BME280;15126;42.186;24.340;2023-02-18T04:01:42;99973.84;;;5.54;54.56
27729;BME280;15126;42.186;24.340;2023-02-18T04:04:09;99981.34;;;5.53;53.80
27729;BME280;15126;42.186;24.340;2023-02-18T04:06:36;99985.38;;;5.59;54.29
27729;BME280;15126;42.186;24.340;2023-02-18T04:09:03;99994.13;;;5.65;54.45
27729;BME280;15126;42.186;24.340;2023-02-18T04:11:35;99995.72;;;5.69;53.92
27729;BME280;15126;42.186;24.340;2023-02-18T04:14:02;99998.91;;;5.71;54.43
27729;BME280;15126;42.186;24.340;2023-02-18T04:16:29;99998.44;;;5.62;55.41
27729;BME280;15126;42.186;24.340;2023-02-18T04:18:56;100006.31;;;5.60;55.41
27729;BME280;15126;42.186;24.340;2023-02-18T04:21:23;100006.28;;;5.57;56.16
27729;BME280;15126;42.186;24.340;2023-02-18T04:23:49;99990.91;;;5.63;56.09
27729;BME280;15126;42.186;24.340;2023-02-18T04:26:16;100000.88;;;5.71;55.57
27729;BME280;15126;42.186;24.340;2023-02-18T04:28:44;99995.38;;;5.74;54.71
27729;BME280;15126;42.186;24.340;2023-02-18T04:31:11;99991.50;;;5.82;55.12
27729;BME280;15126;42.186;24.340;2023-02-18T04:33:38;99991.22;;;5.91;54.67
27729;BME280;15126;42.186;24.340;2023-02-18T04:36:06;99994.91;;;6.06;53.62
27729;BME280;15126;42.186;24.340;2023-02-18T04:38:33;99991.81;;;6.18;53.38
27729;BME280;15126;42.186;24.340;2023-02-18T04:40:59;99996.66;;;6.31;52.76
27729;BME280;15126;42.186;24.340;2023-02-18T04:43:26;99994.00;;;6.45;51.93
27729;BME280;15126;42.186;24.340;2023-02-18T04:45:54;99991.28;;;6.56;51.43
27729;BME280;15126;42.186;24.340;2023-02-18T04:48:21;99988.13;;;6.61;52.12
27729;BME280;15126;42.186;24.340;2023-02-18T04:50:48;99982.66;;;6.68;51.92
27729;BME280;15126;42.186;24.340;2023-02-18T04:53:15;99976.69;;;6.66;51.81
27729;BME280;15126;42.186;24.340;2023-02-18T04:55:42;99982.66;;;6.68;52.03
27729;BME280;15126;42.186;24.340;2023-02-18T04:58:09;99965.25;;;6.75;51.81
27729;BME280;15126;42.186;24.340;2023-02-18T05:00:35;99982.28;;;6.77;51.60
27729;BME280;15126;42.186;24.340;2023-02-18T05:03:03;99984.25;;;6.73;51.58
27729;BME280;15126;42.186;24.340;2023-02-18T05:05:30;99980.31;;;6.77;51.50
27729;BME280;15126;42.186;24.340;2023-02-18T05:07:57;99986.59;;;6.67;51.51
27729;BME280;15126;42.186;24.340;2023-02-18T05:10:24;99981.44;;;6.66;51.90
27729;BME280;15126;42.186;24.340;2023-02-18T05:12:51;99983.06;;;6.77;51.06
27729;BME280;15126;42.186;24.340;2023-02-18T05:15:18;99971.63;;;6.79;50.75
27729;BME280;15126;42.186;24.340;2023-02-18T05:17:44;99973.16;;;6.73;50.52
27729;BME280;15126;42.186;24.340;2023-02-18T05:20:13;99964.44;;;6.71;51.08
27729;BME280;15126;42.186;24.340;2023-02-18T05:22:39;99958.91;;;6.71;51.08
27729;BME280;15126;42.186;24.340;2023-02-18T05:25:07;99963.63;;;6.63;51.35
27729;BME280;15126;42.186;24.340;2023-02-18T05:27:34;99981.38;;;6.58;51.38
27729;BME280;15126;42.186;24.340;2023-02-18T05:30:01;99975.06;;;6.54;51.04
27729;BME280;15126;42.186;24.340;2023-02-18T05:32:30;99967.91;;;6.53;50.98
27729;BME280;15126;42.186;24.340;2023-02-18T05:34:57;99988.91;;;6.58;51.55
27729;BME280;15126;42.186;24.340;2023-02-18T05:37:25;99983.38;;;6.58;51.20
27729;BME280;15126;42.186;24.340;2023-02-18T05:39:52;99980.19;;;6.56;51.99
27729;BME280;15126;42.186;24.340;2023-02-18T05:42:19;99981.03;;;6.60;51.50
27729;BME280;15126;42.186;24.340;2023-02-18T05:44:47;99977.06;;;6.57;51.68
27729;BME280;15126;42.186;24.340;2023-02-18T05:47:14;99988.13;;;6.57;51.78
27729;BME280;15126;42.186;24.340;2023-02-18T05:49:42;99979.38;;;6.48;52.44
27729;BME280;15126;42.186;24.340;2023-02-18T05:52:09;99968.72;;;6.54;51.52
27729;BME280;15126;42.186;24.340;2023-02-18T05:54:38;99985.78;;;6.63;52.08
27729;BME280;15126;42.186;24.340;2023-02-18T05:57:05;99992.16;;;6.71;51.70
27729;BME280;15126;42.186;24.340;2023-02-18T05:59:32;99975.16;;;6.76;51.44
27729;BME280;15126;42.186;24.340;2023-02-18T06:01:59;99971.22;;;6.84;51.14
27729;BME280;15126;42.186;24.340;2023-02-18T06:04:26;99975.22;;;6.93;50.72
27729;BME280;15126;42.186;24.340;2023-02-18T06:06:53;99982.75;;;6.96;50.79
27729;BME280;15126;42.186;24.340;2023-02-18T06:09:20;99976.44;;;6.99;50.85
27729;BME280;15126;42.186;24.340;2023-02-18T06:11:48;99981.66;;;7.11;49.74
27729;BME280;15126;42.186;24.340;2023-02-18T06:14:15;99975.31;;;7.14;51.14
27729;BME280;15126;42.186;24.340;2023-02-18T06:16:42;99982.88;;;7.25;49.67
27729;BME280;15126;42.186;24.340;2023-02-18T06:19:09;99979.31;;;7.31;50.08
27729;BME280;15126;42.186;24.340;2023-02-18T06:21:35;99983.69;;;7.36;49.79
27729;BME280;15126;42.186;24.340;2023-02-18T06:24:03;99990.47;;;7.49;49.39
27729;BME280;15126;42.186;24.340;2023-02-18T06:26:29;99982.97;;;7.63;48.90
27729;BME280;15126;42.186;24.340;2023-02-18T06:28:58;99982.56;;;7.72;48.15
27729;BME280;15126;42.186;24.340;2023-02-18T06:31:24;99975.44;;;7.82;48.61
27729;BME280;15126;42.186;24.340;2023-02-18T06:33:51;99986.16;;;8.04;47.83
27729;BME280;15126;42.186;24.340;2023-02-18T06:36:18;99975.81;;;8.15;48.50
27729;BME280;15126;42.186;24.340;2023-02-18T06:38:45;99978.25;;;8.31;48.06
27729;BME280;15126;42.186;24.340;2023-02-18T06:41:13;99974.66;;;8.45;47.48
27729;BME280;15126;42.186;24.340;2023-02-18T06:43:40;99971.00;;;8.62;46.96
27729;BME280;15126;42.186;24.340;2023-02-18T06:46:08;99951.88;;;8.78;47.48
27729;BME280;15126;42.186;24.340;2023-02-18T06:48:36;99948.66;;;8.93;45.89
27729;BME280;15126;42.186;24.340;2023-02-18T06:51:04;99941.03;;;9.12;46.02
27729;BME280;15126;42.186;24.340;2023-02-18T06:53:30;99933.41;;;9.23;45.67
27729;BME280;15126;42.186;24.340;2023-02-18T06:55:57;99936.91;;;9.37;45.58
27729;BME280;15126;42.186;24.340;2023-02-18T06:58:26;99925.28;;;9.49;46.13
27729;BME280;15126;42.186;24.340;2023-02-18T07:00:53;99924.44;;;9.56;45.18
27729;BME280;15126;42.186;24.340;2023-02-18T07:03:21;99930.38;;;9.62;44.67
27729;BME280;15126;42.186;24.340;2023-02-18T07:05:48;99927.91;;;9.71;44.48
27729;BME280;15126;42.186;24.340;2023-02-18T07:08:16;99922.34;;;9.71;44.64
27729;BME280;15126;42.186;24.340;2023-02-18T07:10:42;99918.81;;;9.63;45.26
27729;BME280;15126;42.186;24.340;2023-02-18T07:13:09;99918.78;;;9.70;45.02
27729;BME280;15126;42.186;24.340;2023-02-18T07:15:36;99918.78;;;9.70;45.04
27729;BME280;15126;42.186;24.340;2023-02-18T07:18:03;99918.66;;;9.84;45.30
27729;BME280;15126;42.186;24.340;2023-02-18T07:20:32;99923.38;;;9.91;45.13
27729;BME280;15126;42.186;24.340;2023-02-18T07:22:59;99928.06;;;9.97;45.33
27729;BME280;15126;42.186;24.340;2023-02-18T07:25:25;99922.47;;;10.04;45.33
27729;BME280;15126;42.186;24.340;2023-02-18T07:27:52;99930.81;;;10.04;45.24
27729;BME280;15126;42.186;24.340;2023-02-18T07:30:19;99928.38;;;10.13;45.46
27729;BME280;15126;42.186;24.340;2023-02-18T07:32:46;99919.94;;;10.21;44.38
27729;BME280;15126;42.186;24.340;2023-02-18T07:35:15;99930.25;;;10.27;44.86
27729;BME280;15126;42.186;24.340;2023-02-18T07:37:44;99927.84;;;10.26;44.37
27729;BME280;15126;42.186;24.340;2023-02-18T07:40:13;99921.59;;;10.14;45.20
27729;BME280;15126;42.186;24.340;2023-02-18T07:42:41;99913.06;;;10.32;44.00
27729;BME280;15126;42.186;24.340;2023-02-18T07:45:09;99900.53;;;10.47;43.72
27729;BME280;15126;42.186;24.340;2023-02-18T07:47:36;99909.91;;;10.64;43.04
27729;BME280;15126;42.186;24.340;2023-02-18T07:50:03;99901.84;;;10.73;42.15
27729;BME280;15126;42.186;24.340;2023-02-18T07:52:31;99902.53;;;10.81;41.42
27729;BME280;15126;42.186;24.340;2023-02-18T07:54:59;99899.75;;;10.81;42.42
27729;BME280;15126;42.186;24.340;2023-02-18T07:57:26;99889.13;;;10.99;42.20
27729;BME280;15126;42.186;24.340;2023-02-18T07:59:53;99890.13;;;11.12;41.46
27729;BME280;15126;42.186;24.340;2023-02-18T08:02:21;99883.88;;;11.31;42.05
27729;BME280;15126;42.186;24.340;2023-02-18T08:04:48;99883.56;;;11.52;41.24
27729;BME280;15126;42.186;24.340;2023-02-18T08:07:17;99887.34;;;11.65;41.61
27729;BME280;15126;42.186;24.340;2023-02-18T08:09:44;99881.94;;;11.81;41.06
27729;BME280;15126;42.186;24.340;2023-02-18T08:12:13;99896.72;;;12.02;38.85
27729;BME280;15126;42.186;24.340;2023-02-18T08:14:40;99879.94;;;12.25;38.53
27729;BME280;15126;42.186;24.340;2023-02-18T08:17:07;99879.59;;;12.42;39.89
27729;BME280;15126;42.186;24.340;2023-02-18T08:19:33;99873.66;;;12.60;39.89
27729;BME280;15126;42.186;24.340;2023-02-18T08:22:00;99882.53;;;12.75;39.98
27729;BME280;15126;42.186;24.340;2023-02-18T08:24:28;99871.50;;;12.87;38.90
27729;BME280;15126;42.186;24.340;2023-02-18T08:26:55;99866.94;;;13.13;37.58
27729;BME280;15126;42.186;24.340;2023-02-18T08:29:23;99866.53;;;13.31;38.40
27729;BME280;15126;42.186;24.340;2023-02-18T08:31:49;99856.16;;;13.47;39.09
27729;BME280;15126;42.186;24.340;2023-02-18T08:34:18;99862.97;;;13.62;37.72
27729;BME280;15126;42.186;24.340;2023-02-18T08:36:45;99873.75;;;13.80;36.26
27729;BME280;15126;42.186;24.340;2023-02-18T08:39:12;99867.25;;;13.99;37.00
27729;BME280;15126;42.186;24.340;2023-02-18T08:41:38;99880.00;;;14.16;36.29
27729;BME280;15126;42.186;24.340;2023-02-18T08:44:05;99874.22;;;14.23;34.34
27729;BME280;15126;42.186;24.340;2023-02-18T08:46:33;99875.22;;;14.29;35.50
27729;BME280;15126;42.186;24.340;2023-02-18T08:49:00;99876.81;;;14.47;35.29
27729;BME280;15126;42.186;24.340;2023-02-18T08:51:30;99872.25;;;14.65;35.73
27729;BME280;15126;42.186;24.340;2023-02-18T08:53:56;99867.69;;;14.84;35.42
27729;BME280;15126;42.186;24.340;2023-02-18T08:56:23;99864.81;;;15.00;33.23
27729;BME280;15126;42.186;24.340;2023-02-18T08:58:50;99876.41;;;15.27;34.03
27729;BME280;15126;42.186;24.340;2023-02-18T09:01:17;99863.97;;;15.54;34.61
27729;BME280;15126;42.186;24.340;2023-02-18T09:03:46;99879.25;;;15.78;33.74
27729;BME280;15126;42.186;24.340;2023-02-18T09:06:13;99878.84;;;16.01;33.31
27729;BME280;15126;42.186;24.340;2023-02-18T09:08:40;99869.59;;;16.13;32.36
27729;BME280;15126;42.186;24.340;2023-02-18T09:11:07;99868.31;;;16.27;32.91
27729;BME280;15126;42.186;24.340;2023-02-18T09:13:35;99873.25;;;16.35;33.07
27729;BME280;15126;42.186;24.340;2023-02-18T09:16:04;99866.94;;;16.31;31.62
27729;BME280;15126;42.186;24.340;2023-02-18T09:18:32;99867.31;;;16.21;33.03
27729;BME280;15126;42.186;24.340;2023-02-18T09:21:01;99850.22;;;16.15;33.79
27729;BME280;15126;42.186;24.340;2023-02-18T09:23:30;99868.97;;;16.31;31.97
27729;BME280;15126;42.186;24.340;2023-02-18T09:25:58;99865.38;;;16.30;33.05
27729;BME280;15126;42.186;24.340;2023-02-18T09:28:25;99875.38;;;16.31;33.07
27729;BME280;15126;42.186;24.340;2023-02-18T09:31:03;99868.63;;;16.41;32.97
27729;BME280;15126;42.186;24.340;2023-02-18T09:33:34;99873.97;;;16.48;32.72
27729;BME280;15126;42.186;24.340;2023-02-18T09:36:05;99870.59;;;16.53;33.50
27729;BME280;15126;42.186;24.340;2023-02-18T09:38:32;99862.56;;;16.64;33.40
27729;BME280;15126;42.186;24.340;2023-02-18T09:41:02;99864.06;;;16.78;31.91
27729;BME280;15126;42.186;24.340;2023-02-18T09:43:32;99866.34;;;16.92;29.99
27729;BME280;15126;42.186;24.340;2023-02-18T09:46:01;99855.44;;;17.03;31.37
27729;BME280;15126;42.186;24.340;2023-02-18T09:48:31;99863.50;;;17.23;29.67
27729;BME280;15126;42.186;24.340;2023-02-18T09:50:59;99848.53;;;17.35;30.76
27729;BME280;15126;42.186;24.340;2023-02-18T09:53:27;99826.78;;;17.36;31.76
27729;BME280;15126;42.186;24.340;2023-02-18T09:55:56;99834.97;;;17.52;29.41
27729;BME280;15126;42.186;24.340;2023-02-18T09:58:25;99817.03;;;17.37;29.13
27729;BME280;15126;42.186;24.340;2023-02-18T10:01:00;99814.91;;;17.50;29.21
27729;BME280;15126;42.186;24.340;2023-02-18T10:03:29;99799.56;;;17.51;30.08
27729;BME280;15126;42.186;24.340;2023-02-18T10:05:58;99811.03;;;17.56;29.33
27729;BME280;15126;42.186;24.340;2023-02-18T10:08:29;99814.91;;;17.50;29.13
27729;BME280;15126;42.186;24.340;2023-02-18T10:10:57;99812.13;;;17.59;29.83
27729;BME280;15126;42.186;24.340;2023-02-18T10:13:27;99817.31;;;17.60;29.90
27729;BME280;15126;42.186;24.340;2023-02-18T10:15:54;99805.41;;;17.65;31.11
27729;BME280;15126;42.186;24.340;2023-02-18T10:18:26;99801.84;;;17.74;29.78
27729;BME280;15126;42.186;24.340;2023-02-18T10:21:00;99799.81;;;17.83;29.44
27729;BME280;15126;42.186;24.340;2023-02-18T10:23:32;99800.00;;;17.98;28.45
27729;BME280;15126;42.186;24.340;2023-02-18T10:26:02;99795.75;;;18.12;28.84
27729;BME280;15126;42.186;24.340;2023-02-18T10:28:31;99788.69;;;18.16;30.72
27729;BME280;15126;42.186;24.340;2023-02-18T10:31:01;99780.19;;;18.43;29.94
27729;BME280;15126;42.186;24.340;2023-02-18T10:33:34;99768.78;;;18.56;29.89
27729;BME280;15126;42.186;24.340;2023-02-18T10:36:20;99761.63;;;18.70;29.08
27729;BME280;15126;42.186;24.340;2023-02-18T10:39:06;99770.13;;;18.70;27.00
27729;BME280;15126;42.186;24.340;2023-02-18T10:41:41;99748.94;;;18.74;28.09
27729;BME280;15126;42.186;24.340;2023-02-18T10:44:17;99765.97;;;18.89;26.89
27729;BME280;15126;42.186;24.340;2023-02-18T10:46:55;99762.06;;;18.86;28.22
27729;BME280;15126;42.186;24.340;2023-02-18T10:49:46;99754.66;;;18.89;27.93
27729;BME280;15126;42.186;24.340;2023-02-18T10:52:17;99750.44;;;18.93;27.74
27729;BME280;15126;42.186;24.340;2023-02-18T10:54:51;99750.38;;;19.02;27.69
27729;BME280;15126;42.186;24.340;2023-02-18T10:57:19;99740.00;;;19.09;27.43
27729;BME280;15126;42.186;24.340;2023-02-18T10:59:55;99733.09;;;19.10;27.20
27729;BME280;15126;42.186;24.340;2023-02-18T11:02:25;99730.50;;;19.21;28.66
27729;BME280;15126;42.186;24.340;2023-02-18T11:04:56;99717.19;;;19.12;28.47
27729;BME280;15126;42.186;24.340;2023-02-18T11:07:26;99730.44;;;19.30;27.23
27729;BME280;15126;42.186;24.340;2023-02-18T11:09:57;99723.19;;;19.38;27.10
27729;BME280;15126;42.186;24.340;2023-02-18T11:12:28;99721.00;;;19.42;27.10
27729;BME280;15126;42.186;24.340;2023-02-18T11:15:06;99703.44;;;19.29;29.44
27729;BME280;15126;42.186;24.340;2023-02-18T11:17:34;99722.41;;;19.37;27.13
27729;BME280;15126;42.186;24.340;2023-02-18T11:20:23;99702.28;;;19.35;26.69
27729;BME280;15126;42.186;24.340;2023-02-18T11:22:51;99699.53;;;19.26;27.93
27729;BME280;15126;42.186;24.340;2023-02-18T11:25:25;99710.47;;;19.42;26.80
27729;BME280;15126;42.186;24.340;2023-02-18T11:27:55;99695.03;;;19.43;26.81
27729;BME280;15126;42.186;24.340;2023-02-18T11:30:25;99700.06;;;19.48;26.47
27729;BME280;15126;42.186;24.340;2023-02-18T11:32:59;99690.56;;;19.51;27.48
27729;BME280;15126;42.186;24.340;2023-02-18T11:35:30;99689.44;;;19.58;27.10
27729;BME280;15126;42.186;24.340;2023-02-18T11:37:58;99688.75;;;19.63;27.23
27729;BME280;15126;42.186;24.340;2023-02-18T11:40:30;99686.16;;;19.74;27.10
27729;BME280;15126;42.186;24.340;2023-02-18T11:43:09;99681.22;;;19.84;27.15
27729;BME280;15126;42.186;24.340;2023-02-18T11:45:37;99675.06;;;19.85;27.24
27729;BME280;15126;42.186;24.340;2023-02-18T11:48:11;99668.44;;;19.88;27.05
27729;BME280;15126;42.186;24.340;2023-02-18T11:50:41;99680.84;;;19.91;27.79
27729;BME280;15126;42.186;24.340;2023-02-18T11:53:29;99667.34;;;19.86;26.91
27729;BME280;15126;42.186;24.340;2023-02-18T11:56:03;99663.09;;;20.05;26.76
27729;BME280;15126;42.186;24.340;2023-02-18T11:58:35;99658.31;;;20.11;27.02
27729;BME280;15126;42.186;24.340;2023-02-18T12:01:05;99658.31;;;20.26;27.94
27729;BME280;15126;42.186;24.340;2023-02-18T12:03:41;99638.03;;;20.27;27.20
27729;BME280;15126;42.186;24.340;2023-02-18T12:06:14;99639.66;;;20.34;27.36
27729;BME280;15126;42.186;24.340;2023-02-18T12:08:47;99634.69;;;20.29;28.44
27729;BME280;15126;42.186;24.340;2023-02-18T12:11:25;99626.78;;;20.33;26.92
27729;BME280;15126;42.186;24.340;2023-02-18T12:13:55;99639.28;;;20.41;27.23
27729;BME280;15126;42.186;24.340;2023-02-18T12:16:28;99632.03;;;20.40;27.38
27729;BME280;15126;42.186;24.340;2023-02-18T12:19:32;99624.81;;;20.39;26.62
27729;BME280;15126;42.186;24.340;2023-02-18T12:22:07;99622.47;;;20.37;27.05
27729;BME280;15126;42.186;24.340;2023-02-18T12:24:44;99619.63;;;20.23;27.33
27729;BME280;15126;42.186;24.340;2023-02-18T12:27:21;99621.88;;;20.18;27.32
27729;BME280;15126;42.186;24.340;2023-02-18T12:30:00;99618.25;;;20.18;26.80
27729;BME280;15126;42.186;24.340;2023-02-18T12:32:38;99610.44;;;20.13;27.86
27729;BME280;15126;42.186;24.340;2023-02-18T12:35:31;99608.41;;;20.13;27.76
27729;BME280;15126;42.186;24.340;2023-02-18T12:38:14;99604.50;;;20.26;27.42
27729;BME280;15126;42.186;24.340;2023-02-18T12:41:04;99601.56;;;20.35;26.78
27729;BME280;15126;42.186;24.340;2023-02-18T12:43:45;99599.03;;;20.37;28.37
27729;BME280;15126;42.186;24.340;2023-02-18T12:46:23;99599.63;;;20.26;27.64
27729;BME280;15126;42.186;24.340;2023-02-18T12:49:07;99601.19;;;20.27;27.27
27729;BME280;15126;42.186;24.340;2023-02-18T12:51:46;99596.66;;;20.20;27.36
27729;BME280;15126;42.186;24.340;2023-02-18T12:54:29;99581.63;;;20.14;28.06
27729;BME280;15126;42.186;24.340;2023-02-18T12:57:33;99576.28;;;20.02;27.74
27729;BME280;15126;42.186;24.340;2023-02-18T13:00:29;99571.78;;;20.10;28.05
27729;BME280;15126;42.186;24.340;2023-02-18T13:03:15;99560.06;;;20.02;28.41
27729;BME280;15126;42.186;24.340;2023-02-18T13:05:51;99563.38;;;20.15;28.29
27729;BME280;15126;42.186;24.340;2023-02-18T13:08:33;99573.44;;;20.31;28.25
27729;BME280;15126;42.186;24.340;2023-02-18T13:11:13;99560.63;;;20.36;27.36
27729;BME280;15126;42.186;24.340;2023-02-18T13:13:47;99559.94;;;20.41;27.78
27729;BME280;15126;42.186;24.340;2023-02-18T13:16:20;99558.53;;;20.51;27.39
27729;BME280;15126;42.186;24.340;2023-02-18T13:18:55;99569.19;;;20.56;27.23
27729;BME280;15126;42.186;24.340;2023-02-18T13:21:26;99571.81;;;20.59;27.28
27729;BME280;15126;42.186;24.340;2023-02-18T13:23:56;99573.97;;;20.50;28.19
27729;BME280;15126;42.186;24.340;2023-02-18T13:26:24;99563.84;;;20.43;28.03
27729;BME280;15126;42.186;24.340;2023-02-18T13:29:06;99562.88;;;20.32;28.53